createdAt,value
2023-05-10T00:02:25.645Z,41.10
2023-05-10T00:04:52.274Z,40.94
2023-05-10T00:07:18.759Z,41.08
2023-05-10T00:09:45.291Z,41.14
2023-05-10T00:12:11.633Z,41.21
2023-05-10T00:14:37.992Z,41.01
2023-05-10T00:17:04.396Z,40.92
2023-05-10T00:19:30.902Z,40.80
2023-05-10T00:21:57.317Z,41.20
2023-05-10T00:24:23.687Z,41.52
2023-05-10T00:26:51.918Z,40.99
2023-05-10T00:29:18.469Z,41.18
2023-05-10T00:31:44.889Z,41.47
2023-05-10T00:34:11.301Z,40.86
2023-05-10T00:36:37.756Z,41.13
2023-05-10T00:39:04.639Z,40.87
2023-05-10T00:41:33.718Z,41.02
2023-05-10T00:44:00.201Z,41.25
2023-05-10T00:46:26.968Z,41.09
2023-05-10T00:48:53.775Z,40.76
2023-05-10T00:51:20.174Z,40.57
2023-05-10T00:53:47.123Z,40.88
2023-05-10T00:56:13.973Z,41.12
2023-05-10T00:58:40.835Z,41.03
2023-05-10T01:01:07.893Z,41.10
2023-05-10T01:03:34.456Z,40.74
2023-05-10T01:06:00.996Z,40.89
2023-05-10T01:08:27.779Z,41.15
2023-05-10T01:10:54.821Z,40.34
2023-05-10T01:13:31.703Z,40.29
2023-05-10T01:15:58.677Z,39.92
2023-05-10T01:18:25.992Z,40.21
2023-05-10T01:21:00.231Z,40.68
2023-05-10T01:23:46.824Z,40.40
2023-05-10T01:26:26.644Z,40.45
2023-05-10T01:28:58.796Z,40.82
2023-05-10T01:31:31.334Z,41.03
2023-05-10T01:34:03.424Z,40.72
2023-05-10T01:36:29.789Z,40.84
2023-05-10T01:39:08.490Z,40.70
2023-05-10T01:41:41.034Z,40.97
2023-05-10T01:44:32.272Z,40.88
2023-05-10T01:47:18.287Z,40.91
2023-05-10T01:49:47.754Z,40.74
2023-05-10T01:52:16.847Z,40.49
2023-05-10T01:54:45.718Z,40.37
2023-05-10T01:57:15.039Z,40.37
2023-05-10T01:59:44.466Z,40.58
2023-05-10T02:02:13.108Z,40.50
2023-05-10T02:04:40.733Z,40.07
2023-05-10T02:07:07.759Z,40.33
2023-05-10T02:09:35.642Z,40.37
2023-05-10T02:12:03.644Z,40.37
2023-05-10T02:14:31.694Z,40.15
2023-05-10T02:16:59.551Z,40.22
2023-05-10T02:19:27.130Z,40.19
2023-05-10T02:21:53.955Z,40.15
2023-05-10T02:24:21.061Z,40.21
2023-05-10T02:26:48.682Z,40.13
2023-05-10T02:29:15.616Z,39.96
2023-05-10T02:31:44.568Z,39.99
2023-05-10T02:34:11.453Z,39.84
2023-05-10T02:36:39.596Z,39.87
2023-05-10T02:39:10.550Z,39.95
2023-05-10T02:41:37.873Z,39.99
2023-05-10T02:44:07.756Z,39.71
2023-05-10T02:46:34.463Z,39.64
2023-05-10T02:49:01.947Z,39.73
2023-05-10T02:51:32.931Z,39.54
2023-05-10T02:54:02.268Z,39.64
2023-05-10T02:56:33.958Z,39.68
2023-05-10T02:59:00.365Z,39.66
2023-05-10T03:01:26.787Z,39.55
2023-05-10T03:03:53.214Z,39.47
2023-05-10T03:06:19.716Z,39.48
2023-05-10T03:08:46.273Z,39.69
2023-05-10T03:11:33.220Z,39.66
2023-05-10T03:14:11.105Z,39.69
2023-05-10T03:16:44.806Z,39.73
2023-05-10T03:19:23.461Z,39.64
2023-05-10T03:21:51.840Z,39.76
2023-05-10T03:24:21.309Z,39.83
2023-05-10T03:26:48.272Z,39.70
2023-05-10T03:29:15.819Z,39.57
2023-05-10T03:31:42.630Z,39.57
2023-05-10T03:34:09.163Z,39.45
2023-05-10T03:36:35.476Z,39.55
2023-05-10T03:39:01.837Z,39.51
2023-05-10T03:41:28.366Z,39.26
2023-05-10T03:43:54.710Z,39.49
2023-05-10T03:46:21.064Z,39.34
2023-05-10T03:48:47.509Z,39.38
2023-05-10T03:51:13.923Z,39.40
2023-05-10T03:53:40.269Z,39.40
2023-05-10T03:56:06.711Z,39.31
2023-05-10T03:58:33.051Z,39.50
2023-05-10T04:00:59.371Z,39.40
2023-05-10T04:03:26.888Z,39.55
2023-05-10T04:05:59.850Z,39.24
2023-05-10T04:08:26.275Z,39.34
2023-05-10T04:10:52.627Z,39.35
2023-05-10T04:13:19.966Z,39.30
2023-05-10T04:15:46.421Z,39.11
2023-05-10T04:18:12.754Z,39.07
2023-05-10T04:20:39.128Z,39.16
2023-05-10T04:23:05.511Z,39.24
2023-05-10T04:25:34.677Z,39.30
2023-05-10T04:28:01.038Z,39.22
2023-05-10T04:30:29.499Z,38.93
2023-05-10T04:32:55.879Z,38.92
2023-05-10T04:35:22.435Z,39.00
2023-05-10T04:37:48.782Z,38.71
2023-05-10T04:40:15.513Z,38.89
2023-05-10T04:42:44.828Z,38.85
2023-05-10T04:45:11.317Z,38.74
2023-05-10T04:47:40.557Z,38.83
2023-05-10T04:50:07.362Z,38.68
2023-05-10T04:52:33.803Z,38.82
2023-05-10T04:55:00.219Z,38.88
2023-05-10T04:57:26.616Z,38.85
2023-05-10T04:59:53.028Z,38.75
2023-05-10T05:02:19.459Z,38.54
2023-05-10T05:04:45.839Z,38.70
2023-05-10T05:07:12.267Z,38.83
2023-05-10T05:09:38.684Z,38.64
2023-05-10T05:12:05.225Z,38.73
2023-05-10T05:14:31.680Z,38.66
2023-05-10T05:16:58.589Z,38.55
2023-05-10T05:19:24.995Z,38.75
2023-05-10T05:21:51.417Z,38.57
2023-05-10T05:24:17.790Z,38.62
2023-05-10T05:26:44.129Z,38.58
2023-05-10T05:29:10.454Z,38.24
2023-05-10T05:31:36.975Z,38.48
2023-05-10T05:34:03.500Z,38.59
2023-05-10T05:36:29.849Z,38.30
2023-05-10T05:38:56.211Z,38.22
2023-05-10T05:41:22.745Z,38.51
2023-05-10T05:43:49.179Z,38.36
2023-05-10T05:46:15.767Z,38.36
2023-05-10T05:48:42.313Z,38.42
2023-05-10T05:51:08.634Z,38.16
2023-05-10T05:53:35.110Z,38.20
2023-05-10T05:56:01.586Z,38.04
2023-05-10T05:58:28.041Z,37.98
2023-05-10T06:00:54.375Z,38.15
2023-05-10T06:03:21.197Z,38.53
2023-05-10T06:05:47.894Z,38.39
2023-05-10T06:08:14.282Z,38.52
2023-05-10T06:10:40.710Z,38.44
2023-05-10T06:13:07.197Z,38.69
2023-05-10T06:15:33.738Z,38.45
2023-05-10T06:18:00.414Z,38.31
2023-05-10T06:20:27.061Z,38.12
2023-05-10T06:22:53.503Z,38.29
2023-05-10T06:25:19.913Z,38.39
2023-05-10T06:27:49.836Z,37.91
2023-05-10T06:30:18.422Z,38.47
2023-05-10T06:32:46.031Z,38.36
2023-05-10T06:35:12.476Z,38.24
2023-05-10T06:37:38.961Z,38.07
2023-05-10T06:40:06.232Z,38.34
2023-05-10T06:42:32.651Z,38.33
2023-05-10T06:44:59.024Z,38.54
2023-05-10T06:47:25.797Z,38.37
2023-05-10T06:49:52.191Z,38.16
2023-05-10T06:52:18.711Z,37.80
2023-05-10T06:54:45.397Z,38.07
2023-05-10T06:57:23.428Z,38.31
2023-05-10T06:59:57.564Z,37.89
2023-05-10T07:02:24.048Z,37.93
2023-05-10T07:04:51.306Z,37.55
2023-05-10T07:07:17.757Z,37.20
2023-05-10T07:09:44.178Z,37.55
2023-05-10T07:12:12.779Z,37.48
2023-05-10T07:14:40.994Z,37.26
2023-05-10T07:17:07.421Z,36.96
2023-05-10T07:19:33.830Z,37.13
2023-05-10T07:22:00.230Z,37.25
2023-05-10T07:24:26.560Z,36.97
2023-05-10T07:26:53.077Z,36.37
2023-05-10T07:29:19.496Z,36.63
2023-05-10T07:31:45.937Z,36.61
2023-05-10T07:34:12.319Z,36.61
2023-05-10T07:36:38.727Z,36.45
2023-05-10T07:39:05.166Z,36.17
2023-05-10T07:41:31.729Z,36.35
2023-05-10T07:43:58.289Z,36.74
2023-05-10T07:46:24.899Z,36.55
2023-05-10T07:48:51.293Z,36.61
2023-05-10T07:51:17.744Z,36.66
2023-05-10T07:53:44.203Z,36.49
2023-05-10T07:56:33.230Z,36.60
2023-05-10T07:59:00.186Z,36.55
2023-05-10T08:01:27.722Z,36.59
2023-05-10T08:03:54.592Z,36.74
2023-05-10T08:06:21.892Z,36.61
2023-05-10T08:08:50.710Z,36.48
2023-05-10T08:11:18.506Z,36.51
2023-05-10T08:13:49.248Z,36.53
2023-05-10T08:16:15.750Z,36.81
2023-05-10T08:18:42.256Z,36.32
2023-05-10T08:21:08.697Z,36.33
2023-05-10T08:23:35.124Z,36.46
2023-05-10T08:26:01.534Z,36.30
2023-05-10T08:28:28.414Z,36.50
2023-05-10T08:30:54.870Z,36.29
2023-05-10T08:33:21.347Z,36.38
2023-05-10T08:35:47.761Z,36.43
2023-05-10T08:38:14.099Z,35.94
2023-05-10T08:40:42.393Z,36.08
2023-05-10T08:43:09.828Z,35.87
2023-05-10T08:45:40.935Z,36.23
2023-05-10T08:48:08.144Z,36.17
2023-05-10T08:50:38.788Z,36.10
2023-05-10T08:53:06.296Z,36.17
2023-05-10T08:55:33.928Z,36.18
2023-05-10T08:58:03.310Z,36.30
2023-05-10T09:00:29.801Z,36.03
2023-05-10T09:02:56.694Z,35.71
2023-05-10T09:05:23.165Z,35.90
2023-05-10T09:07:49.594Z,35.79
2023-05-10T09:10:16.228Z,35.56
2023-05-10T09:12:42.753Z,35.86
2023-05-10T09:15:10.182Z,35.64
2023-05-10T09:17:37.156Z,35.68
2023-05-10T09:20:05.026Z,35.80
2023-05-10T09:22:31.735Z,35.74
2023-05-10T09:25:24.571Z,35.67
2023-05-10T09:27:51.243Z,35.84
2023-05-10T09:30:18.964Z,35.97
2023-05-10T09:32:46.668Z,35.76
2023-05-10T09:35:14.410Z,35.75
2023-05-10T09:37:42.508Z,35.97
2023-05-10T09:40:11.978Z,35.80
2023-05-10T09:42:38.348Z,35.66
2023-05-10T09:45:05.177Z,35.86
2023-05-10T09:47:37.744Z,35.99
2023-05-10T09:50:05.245Z,36.08
2023-05-10T09:52:32.185Z,35.68
2023-05-10T09:54:58.671Z,35.72
2023-05-10T09:57:26.479Z,35.17
2023-05-10T09:59:55.269Z,35.07
2023-05-10T10:02:22.252Z,34.67
2023-05-10T10:04:50.218Z,34.75
2023-05-10T10:07:23.007Z,33.70
2023-05-10T10:09:49.420Z,33.88
2023-05-10T10:12:15.738Z,33.81
2023-05-10T10:14:42.610Z,33.58
2023-05-10T10:17:09.608Z,33.51
2023-05-10T10:19:36.898Z,33.66
2023-05-10T10:22:03.857Z,33.63
2023-05-10T10:24:30.340Z,33.24
2023-05-10T10:26:58.418Z,33.23
2023-05-10T10:29:31.713Z,33.17
2023-05-10T10:32:20.628Z,33.10
2023-05-10T10:34:47.427Z,32.71
2023-05-10T10:37:13.819Z,32.75
2023-05-10T10:39:40.265Z,32.96
2023-05-10T10:42:06.651Z,32.54
2023-05-10T10:44:36.005Z,32.57
2023-05-10T10:47:03.678Z,32.35
2023-05-10T10:49:34.575Z,32.44
2023-05-10T10:52:21.480Z,32.38
2023-05-10T10:54:57.840Z,32.43
2023-05-10T10:57:24.205Z,32.50
2023-05-10T10:59:50.677Z,32.23
2023-05-10T11:02:55.886Z,32.23
2023-05-10T11:05:25.665Z,31.92
2023-05-10T11:07:55.959Z,32.35
2023-05-10T11:10:23.089Z,32.07
2023-05-10T11:13:21.924Z,32.35
2023-05-10T11:15:49.396Z,32.43
2023-05-10T11:18:19.410Z,32.51
2023-05-10T11:20:51.115Z,32.38
2023-05-10T11:23:18.899Z,32.58
2023-05-10T11:25:48.937Z,32.46
2023-05-10T11:28:15.378Z,32.43
2023-05-10T11:30:43.108Z,32.52
2023-05-10T11:33:09.920Z,32.37
2023-05-10T11:35:42.996Z,32.61
2023-05-10T11:38:10.584Z,32.37
2023-05-10T11:40:37.551Z,32.64
2023-05-10T11:43:04.547Z,32.55
2023-05-10T11:45:34.415Z,32.46
2023-05-10T11:48:01.234Z,32.50
2023-05-10T11:50:27.732Z,32.34
2023-05-10T11:52:54.766Z,32.51
2023-05-10T11:55:21.239Z,32.33
2023-05-10T11:57:47.741Z,32.50
2023-05-10T12:00:14.998Z,32.49
2023-05-10T12:02:42.009Z,32.52
2023-05-10T12:05:08.778Z,32.21
2023-05-10T12:07:35.974Z,32.28
2023-05-10T12:10:09.970Z,32.08
2023-05-10T12:12:37.880Z,32.13
2023-05-10T12:15:04.914Z,32.41
2023-05-10T12:17:31.284Z,32.22
2023-05-10T12:20:15.026Z,31.98
2023-05-10T12:22:41.574Z,31.94
2023-05-10T12:25:09.320Z,32.26
2023-05-10T12:27:36.152Z,32.17
2023-05-10T12:30:02.844Z,32.11
2023-05-10T12:32:39.625Z,32.10
2023-05-10T12:35:06.196Z,31.93
2023-05-10T12:37:36.735Z,31.80
2023-05-10T12:40:04.009Z,32.06
2023-05-10T12:42:31.091Z,32.22
2023-05-10T12:44:57.869Z,31.85
2023-05-10T12:47:24.370Z,32.18
2023-05-10T12:49:52.191Z,31.97
2023-05-10T12:52:18.582Z,32.10
2023-05-10T12:54:44.897Z,32.09
2023-05-10T12:57:11.355Z,31.99
2023-05-10T12:59:38.301Z,32.18
2023-05-10T13:02:04.895Z,32.28
2023-05-10T13:04:31.345Z,32.26
2023-05-10T13:06:59.973Z,32.11
2023-05-10T13:09:27.585Z,32.36
2023-05-10T13:11:56.730Z,32.22
2023-05-10T13:14:23.176Z,32.13
2023-05-10T13:16:49.687Z,32.09
2023-05-10T13:19:16.988Z,31.90
2023-05-10T13:21:43.687Z,31.99
2023-05-10T13:24:10.165Z,31.98
2023-05-10T13:26:37.244Z,31.82
2023-05-10T13:29:04.149Z,32.04
2023-05-10T13:31:30.689Z,31.88
2023-05-10T13:33:57.294Z,31.88
2023-05-10T13:36:23.860Z,31.77
2023-05-10T13:38:50.253Z,31.74
2023-05-10T13:41:16.635Z,31.89
2023-05-10T13:43:43.067Z,31.80
2023-05-10T13:46:09.507Z,31.94
2023-05-10T13:48:39.180Z,31.72
2023-05-10T13:51:05.702Z,31.75
2023-05-10T13:53:32.151Z,31.66
2023-05-10T13:55:58.659Z,31.51
2023-05-10T13:58:25.107Z,31.44
2023-05-10T14:00:51.496Z,31.79
2023-05-10T14:03:18.115Z,31.57
2023-05-10T14:05:46.007Z,31.83
2023-05-10T14:08:14.152Z,31.90
2023-05-10T14:10:40.627Z,31.89
2023-05-10T14:13:07.455Z,31.80
2023-05-10T14:15:33.865Z,31.79
2023-05-10T14:18:00.579Z,32.01
2023-05-10T14:20:27.033Z,31.89
2023-05-10T14:22:53.428Z,31.83
2023-05-10T14:25:20.008Z,32.06
2023-05-10T14:27:46.603Z,32.00
2023-05-10T14:30:13.141Z,32.00
2023-05-10T14:32:39.676Z,31.88
2023-05-10T14:35:07.082Z,32.12
2023-05-10T14:37:33.726Z,32.20
2023-05-10T14:40:00.250Z,32.14
2023-05-10T14:42:26.795Z,32.19
2023-05-10T14:44:53.245Z,32.28
2023-05-10T14:47:19.653Z,32.18
2023-05-10T14:49:46.059Z,32.32
2023-05-10T14:52:13.320Z,32.04
2023-05-10T14:54:40.014Z,32.21
2023-05-10T14:57:07.424Z,31.83
2023-05-10T14:59:33.796Z,31.84
2023-05-10T15:02:00.669Z,32.15
2023-05-10T15:04:29.194Z,31.89
2023-05-10T15:07:00.133Z,31.91
2023-05-10T15:09:28.458Z,31.93
2023-05-10T15:11:55.364Z,31.79
2023-05-10T15:14:21.798Z,31.87
2023-05-10T15:16:48.157Z,31.73
2023-05-10T15:19:14.511Z,31.72
2023-05-10T15:21:43.458Z,31.87
2023-05-10T15:24:10.576Z,31.72
2023-05-10T15:26:36.946Z,31.65
2023-05-10T15:29:03.371Z,31.84
2023-05-10T15:31:29.811Z,31.64
2023-05-10T15:34:02.037Z,31.81
2023-05-10T15:36:28.443Z,31.78
2023-05-10T15:38:55.578Z,31.76
2023-05-10T15:41:21.881Z,31.55
2023-05-10T15:43:48.243Z,31.71
2023-05-10T15:46:14.580Z,31.70
2023-05-10T15:48:40.990Z,31.49
2023-05-10T15:51:07.365Z,31.50
2023-05-10T15:53:33.703Z,31.72
2023-05-10T15:56:00.106Z,31.80
2023-05-10T15:58:26.498Z,31.81
2023-05-10T16:00:52.962Z,31.65
2023-05-10T16:03:19.366Z,31.45
2023-05-10T16:05:45.794Z,31.64
2023-05-10T16:08:12.159Z,31.30
2023-05-10T16:10:38.704Z,31.32
2023-05-10T16:13:05.165Z,31.51
2023-05-10T16:15:31.570Z,31.35
2023-05-10T16:17:58.104Z,31.58
2023-05-10T16:20:24.838Z,31.57
2023-05-10T16:22:51.287Z,31.49
2023-05-10T16:25:17.915Z,31.30
2023-05-10T16:27:44.701Z,31.53
2023-05-10T16:30:11.242Z,31.43
2023-05-10T16:32:37.751Z,31.36
2023-05-10T16:35:04.819Z,31.39
2023-05-10T16:37:31.298Z,31.36
2023-05-10T16:39:57.777Z,31.55
2023-05-10T16:42:25.133Z,31.47
2023-05-10T16:44:51.558Z,31.60
2023-05-10T16:47:18.174Z,31.35
2023-05-10T16:49:44.575Z,31.51
2023-05-10T16:52:11.135Z,31.47
2023-05-10T16:54:37.517Z,31.41
2023-05-10T16:57:03.924Z,31.52
2023-05-10T16:59:30.318Z,31.31
2023-05-10T17:01:56.799Z,31.55
2023-05-10T17:04:23.259Z,31.43
2023-05-10T17:06:49.608Z,31.65
2023-05-10T17:09:15.948Z,31.39
2023-05-10T17:11:42.347Z,31.46
2023-05-10T17:14:08.732Z,31.33
2023-05-10T17:16:35.818Z,31.45
2023-05-10T17:19:02.370Z,31.61
2023-05-10T17:21:28.736Z,31.80
2023-05-10T17:23:55.098Z,31.67
2023-05-10T17:26:22.408Z,31.56
2023-05-10T17:28:48.780Z,31.64
2023-05-10T17:31:15.265Z,31.69
2023-05-10T17:33:42.139Z,31.64
2023-05-10T17:36:08.740Z,31.87
2023-05-10T17:38:35.948Z,31.60
2023-05-10T17:41:02.315Z,31.75
2023-05-10T17:43:28.729Z,31.87
2023-05-10T17:45:55.218Z,31.75
2023-05-10T17:48:21.976Z,31.77
2023-05-10T17:50:49.913Z,32.11
2023-05-10T17:53:16.374Z,31.91
2023-05-10T17:55:43.672Z,31.99
2023-05-10T17:58:11.288Z,31.82
2023-05-10T18:00:38.333Z,32.02
2023-05-10T18:03:05.447Z,32.15
2023-05-10T18:05:35.397Z,32.05
2023-05-10T18:08:01.957Z,31.97
2023-05-10T18:10:28.376Z,32.16
2023-05-10T18:12:54.713Z,32.13
2023-05-10T18:15:21.148Z,32.19
2023-05-10T18:17:49.181Z,32.23
2023-05-10T18:20:15.592Z,32.23
2023-05-10T18:22:41.973Z,32.12
2023-05-10T18:25:08.584Z,31.80
2023-05-10T18:27:35.067Z,32.04
2023-05-10T18:30:01.494Z,32.00
2023-05-10T18:32:28.095Z,31.95
2023-05-10T18:34:55.778Z,32.27
2023-05-10T18:37:22.487Z,32.01
2023-05-10T18:39:48.912Z,32.24
2023-05-10T18:42:15.347Z,32.07
2023-05-10T18:44:41.750Z,32.03
2023-05-10T18:47:08.290Z,32.25
2023-05-10T18:49:34.674Z,32.26
2023-05-10T18:52:01.065Z,31.99
2023-05-10T18:54:27.506Z,32.14
2023-05-10T18:56:53.936Z,32.18
2023-05-10T18:59:20.356Z,32.34
2023-05-10T19:01:47.214Z,32.43
2023-05-10T19:04:14.880Z,32.43
2023-05-10T19:06:42.006Z,32.42
2023-05-10T19:09:08.964Z,32.34
2023-05-10T19:11:35.949Z,32.17
2023-05-10T19:14:02.509Z,32.38
2023-05-10T19:16:30.585Z,32.24
2023-05-10T19:18:57.462Z,32.31
2023-05-10T19:21:24.017Z,32.49
2023-05-10T19:23:50.592Z,32.49
2023-05-10T19:26:17.104Z,32.45
2023-05-10T19:28:43.965Z,32.50
2023-05-10T19:31:10.618Z,32.47
2023-05-10T19:33:38.338Z,32.42
2023-05-10T19:36:05.163Z,32.55
2023-05-10T19:38:31.533Z,32.85
2023-05-10T19:40:58.547Z,32.70
2023-05-10T19:43:25.538Z,32.50
2023-05-10T19:45:51.978Z,32.78
2023-05-10T19:48:18.491Z,32.65
2023-05-10T19:50:44.846Z,32.77
2023-05-10T19:53:11.387Z,32.60
2023-05-10T19:55:38.026Z,32.79
2023-05-10T19:58:05.278Z,32.76
2023-05-10T20:00:31.779Z,32.64
2023-05-10T20:02:58.292Z,32.88
2023-05-10T20:05:24.771Z,32.94
2023-05-10T20:07:51.250Z,32.61
2023-05-10T20:10:18.269Z,33.11
2023-05-10T20:12:51.373Z,32.81
2023-05-10T20:15:21.981Z,32.67
2023-05-10T20:17:49.159Z,32.83
2023-05-10T20:20:18.587Z,33.22
2023-05-10T20:22:45.316Z,33.06
2023-05-10T20:25:12.432Z,32.87
2023-05-10T20:27:38.902Z,33.01
2023-05-10T20:30:06.017Z,33.10
2023-05-10T20:32:32.510Z,33.09
2023-05-10T20:34:58.984Z,33.32
2023-05-10T20:37:27.361Z,33.16
2023-05-10T20:39:54.127Z,33.20
2023-05-10T20:42:21.359Z,33.05
2023-05-10T20:44:47.697Z,33.44
2023-05-10T20:47:14.652Z,33.35
2023-05-10T20:49:41.168Z,33.31
2023-05-10T20:52:07.675Z,33.39
2023-05-10T20:54:34.036Z,33.46
2023-05-10T20:57:02.024Z,33.38
2023-05-10T20:59:28.783Z,33.38
2023-05-10T21:01:56.754Z,33.24
2023-05-10T21:04:23.150Z,33.46
2023-05-10T21:06:49.555Z,33.28
2023-05-10T21:09:17.462Z,33.53
2023-05-10T21:11:44.160Z,33.43
2023-05-10T21:14:10.612Z,33.28
2023-05-10T21:16:37.016Z,33.61
2023-05-10T21:19:03.569Z,33.35
2023-05-10T21:21:30.017Z,33.67
2023-05-10T21:23:56.351Z,33.82
2023-05-10T21:26:23.367Z,34.09
2023-05-10T21:28:49.799Z,34.30
2023-05-10T21:31:16.212Z,34.21
2023-05-10T21:33:42.575Z,34.58
2023-05-10T21:36:09.560Z,34.39
2023-05-10T21:38:36.178Z,34.66
2023-05-10T21:41:06.172Z,34.51
2023-05-10T21:43:32.525Z,34.77
2023-05-10T21:45:59.055Z,34.87
2023-05-10T21:48:25.718Z,34.36
2023-05-10T21:50:52.421Z,34.97
2023-05-10T21:53:18.811Z,34.89
2023-05-10T21:55:45.237Z,34.80
2023-05-10T21:58:11.654Z,35.00
2023-05-10T22:00:38.069Z,34.73
2023-05-10T22:03:04.564Z,35.13
2023-05-10T22:05:31.098Z,34.75
2023-05-10T22:07:57.582Z,34.90
2023-05-10T22:10:23.966Z,35.00
2023-05-10T22:12:50.468Z,34.76
2023-05-10T22:15:17.129Z,34.84
2023-05-10T22:17:43.504Z,35.02
2023-05-10T22:20:10.028Z,35.11
2023-05-10T22:22:36.787Z,35.00
2023-05-10T22:25:04.011Z,34.88
2023-05-10T22:27:30.399Z,34.94
2023-05-10T22:29:56.837Z,35.15
2023-05-10T22:32:23.295Z,34.92
2023-05-10T22:34:49.753Z,34.86
2023-05-10T22:37:18.063Z,34.99
2023-05-10T22:39:48.650Z,35.06
2023-05-10T22:42:15.068Z,35.13
2023-05-10T22:44:41.767Z,35.26
2023-05-10T22:47:09.063Z,35.04
2023-05-10T22:49:35.472Z,35.36
2023-05-10T22:52:01.839Z,35.34
2023-05-10T22:54:28.252Z,35.42
2023-05-10T22:56:54.655Z,35.39
2023-05-10T22:59:21.153Z,35.34
2023-05-10T23:01:49.015Z,35.39
2023-05-10T23:04:15.788Z,35.37
2023-05-10T23:06:42.274Z,35.25
2023-05-10T23:09:08.972Z,35.79
2023-05-10T23:11:35.386Z,35.70
2023-05-10T23:14:01.918Z,35.59
2023-05-10T23:16:28.327Z,35.57
2023-05-10T23:18:54.862Z,35.65
2023-05-10T23:21:21.528Z,35.53
2023-05-10T23:23:48.016Z,35.62
2023-05-10T23:26:14.457Z,35.82
2023-05-10T23:28:41.085Z,35.80
2023-05-10T23:31:07.416Z,35.79
2023-05-10T23:33:33.756Z,36.01
2023-05-10T23:36:00.203Z,35.82
2023-05-10T23:38:26.978Z,35.84
2023-05-10T23:40:53.486Z,35.88
2023-05-10T23:43:20.819Z,36.26
2023-05-10T23:45:54.120Z,36.12
2023-05-10T23:48:20.725Z,35.98
2023-05-10T23:50:47.471Z,36.32
2023-05-10T23:53:13.846Z,36.24
2023-05-10T23:55:40.285Z,36.04
2023-05-10T23:58:06.961Z,36.11
